Airfield :
LOGIN :

Register | Disclaimer

   EN    FR    IT 

 










Legend :    VFR   Marginal VFR   IFR   Intensive IFR   Very Intensive IFR
Visi :
Ceiling :
>= 8 km
>= 3000ft
5 to 8 km
1000 to 3000 ft
1500m to 5 km
500 to 1000 ft
800 to 1500m
200 to 500 ft
< 800m
< 200 ft
Symbols :   Thunderstorms  Fog  Heavy snow  Heavy precipitations  Wind > 20 kt
SIGMETs :     Misc.  Thunderstorms  Icing  Turbulence  Mountain Waves  Volcanic Ashes






- Airport Elevation : 13 ft
- IATA code : SNR


LFRZ - St-Nazaire

CURRENT METAR :
  • 080830Z AUTO 06008KT 0800 0700 R25/1400D FZFG VV/// M01/M01 Q1011 BECMG 9999 NSW BKN008

EXPIRED METARs :
  • 080800Z AUTO 05006KT 020V080 0900 0750 R25/1500N FZFG VV/// M01/M01 Q1011 BECMG 9999 NSW BKN008
  • 080730Z AUTO 06008KT 1900 1400 R25/2000D BR VV/// M01/M02 Q1011 BECMG 9999 NSW BKN008
  • 080700Z AUTO 04006KT 010V070 1200 1000 R25/1300D BR VV/// M01/M01 Q1011 BECMG 9999 NSW BKN008
  • 080630Z AUTO 06007KT 1500 1400 R25/1600D BR VV/// M01/M01 Q1011 BECMG 9999 NSW BKN008
  • 080600Z AUTO 05007KT 1100 1000 R25/1500D BR VV/// M01/M01 Q1011 TEMPO 0400 FG

TAF TAF LFRZ
Valid from the 08 at 06:00 until the 09 at 06:00 UTC


080500Z 0806/0906 06005KT 2000 BR OVC003
TEMPO 0806/0808 0400 FG VV///
BECMG 0808/0811 9999 NSW BKN008
BECMG 0812/0814 BKN020
TEMPO 0900/0906 3000 BR BKN003



MET'MAP, your aeronautical weather chart ! - Copyright ORBIFLY December 2007 - Disclaimer

ORBIFLY MET'MAP TEAM :

Programming & Development : Alexandra Zaïnal
Original concept : Baudouin d'Aumeries
Technical & hardware support : Manuel Goepfert
Assistance : Marc-Olivier Méhu




SOURCES & CREDITS :

   NOAA